Time;durP1;ratioP1;P1;durP2;ratioP2;P2;SDS_P1;SDS_P2;PMS_P1;PMS_P2;Temp;Humidity;BMP_temperature;BMP_pressure;BME280_temperature;BME280_humidity;BME280_pressure;Samples;Min_cycle;Max_cycle;Signal;HPM_P1;HPM_P2
2023/07/06 00:01:27;;;;;;;;;;;;;;;20.21;60.12;96881.78;6150877;28;19923;-70
2023/07/06 00:04:30;;;;;;;;;;;;;;;20.21;59.91;96889.81;6134046;28;19934;-70
2023/07/06 00:07:31;;;;;;;;;;;;;;;20.27;60.31;96894.50;6150075;28;20032;-69
2023/07/06 00:10:35;;;;;;;;;;;;;;;20.29;60.48;96892.50;6150727;28;19922;-69
2023/07/06 00:13:39;;;;;;;;;;;;;;;20.25;60.78;96896.53;6150609;28;19918;-70
2023/07/06 00:16:45;;;;;;;;;;;;;;;20.25;60.53;96909.88;6150417;28;19922;-69
2023/07/06 00:19:47;;;;;;;;;;;;;;;20.25;59.94;96909.88;6125067;29;20344;-69
2023/07/06 00:22:54;;;;;;;;;;;;;;;20.29;59.89;96905.88;6126627;29;20017;-69
2023/07/06 00:25:57;;;;;;;;;;;;;;;20.36;60.13;96905.09;6126093;29;20304;-70
2023/07/06 00:29:05;;;;;;;;;;;;;;;20.37;60.22;96906.75;6126370;29;19923;-69
2023/07/06 00:32:25;;;;;;;;;;;;;;;20.38;60.14;96903.09;6125172;29;19923;-70
2023/07/06 00:35:27;;;;;;;;;;;;;;;20.38;59.83;96907.59;6126233;29;19930;-70
2023/07/06 00:38:28;;;;;;;;;;;;;;;20.40;60.42;96910.94;6125957;29;19922;-70
2023/07/06 00:41:34;;;;;;;;;;;;;;;20.44;59.76;96917.66;6125850;29;20392;-70
2023/07/06 00:45:04;;;;;;;;;;;;;;;20.44;59.82;96912.31;6125204;29;20066;-69
2023/07/06 00:48:13;;;;;;;;;;;;;;;20.47;59.77;96914.66;6113491;29;19926;-70
2023/07/06 00:51:19;;;;;;;;;;;;;;;20.50;59.73;96917.00;6125577;29;20428;-70
2023/07/06 00:54:21;;;;;;;;;;;;;;;20.53;59.62;96922.06;6124786;29;19922;-70
2023/07/06 00:57:26;;;;;;;;;;;;;;;20.58;59.95;96918.91;6125869;29;19930;-71
2023/07/06 01:00:29;;;;;;;;;;;;;;;20.63;59.26;96921.94;6125890;29;19922;-71
2023/07/06 01:03:32;;;;;;;;;;;;;;;20.68;59.17;96924.13;6125552;29;19930;-70
2023/07/06 01:06:41;;;;;;;;;;;;;;;20.74;59.02;96926.16;6125503;29;20013;-70
2023/07/06 01:09:47;;;;;;;;;;;;;;;20.77;59.74;96933.84;6125382;29;19923;-71
2023/07/06 01:12:50;;;;;;;;;;;;;;;20.78;59.47;96935.53;6125679;29;20352;-71
2023/07/06 01:16:00;;;;;;;;;;;;;;;20.85;59.18;96931.22;6125397;29;19922;-70
2023/07/06 01:19:12;;;;;;;;;;;;;;;20.90;59.22;96944.94;6136028;28;19929;-69
2023/07/06 01:22:32;;;;;;;;;;;;;;;20.94;59.19;96934.75;6147713;28;20331;-71
2023/07/06 01:25:35;;;;;;;;;;;;;;;20.98;59.55;96947.63;6148256;28;20317;-71
2023/07/06 01:28:45;;;;;;;;;;;;;;;21.04;59.37;96949.66;6115454;28;20017;-71
2023/07/06 01:31:55;;;;;;;;;;;;;;;21.15;58.97;96953.03;6131713;28;19922;-70
2023/07/06 01:35:01;;;;;;;;;;;;;;;21.20;58.89;96953.38;6131457;29;20008;-70
2023/07/06 01:38:03;;;;;;;;;;;;;;;21.25;59.04;96945.69;6147408;28;19922;-69
2023/07/06 01:41:06;;;;;;;;;;;;;;;21.35;58.89;96954.41;6131858;28;19923;-70
2023/07/06 01:44:09;;;;;;;;;;;;;;;21.46;58.23;96951.44;6147723;28;20380;-71
2023/07/06 01:47:10;;;;;;;;;;;;;;;21.56;58.12;96955.81;6147638;28;19929;-69
2023/07/06 01:50:12;;;;;;;;;;;;;;;21.60;58.06;96959.81;6147833;28;19922;-69
2023/07/06 01:53:17;;;;;;;;;;;;;;;21.71;57.89;96959.47;6148512;28;19918;-71
2023/07/06 01:56:31;;;;;;;;;;;;;;;21.71;58.38;96963.03;6148473;28;19930;-71
2023/07/06 01:59:35;;;;;;;;;;;;;;;21.75;57.75;96961.66;6148712;28;19929;-70
2023/07/06 02:02:41;;;;;;;;;;;;;;;21.80;57.96;96968.34;6148536;28;19922;-71
2023/07/06 02:05:45;;;;;;;;;;;;;;;21.87;57.72;96964.84;6115274;28;20424;-70
2023/07/06 02:08:49;;;;;;;;;;;;;;;21.95;57.46;96961.31;6146835;28;19923;-70
2023/07/06 02:11:52;;;;;;;;;;;;;;;22.01;57.42;96962.50;6147771;28;20350;-70
2023/07/06 02:14:55;;;;;;;;;;;;;;;22.08;57.62;96971.50;6133963;28;19922;-71
2023/07/06 02:18:00;;;;;;;;;;;;;;;22.18;57.18;96969.53;6152404;28;19922;-70
2023/07/06 02:21:22;;;;;;;;;;;;;;;22.24;57.12;96968.03;6135451;28;19922;-71
2023/07/06 02:24:23;;;;;;;;;;;;;;;22.26;56.93;96964.16;6118906;28;20388;-70
2023/07/06 02:27:26;;;;;;;;;;;;;;;22.36;56.71;96972.88;6152687;28;19977;-71
2023/07/06 02:30:32;;;;;;;;;;;;;;;22.43;56.63;96970.31;6152937;28;19922;-70
2023/07/06 02:33:34;;;;;;;;;;;;;;;22.49;56.41;96969.63;6152746;28;19922;-71
2023/07/06 02:36:38;;;;;;;;;;;;;;;22.55;56.41;96973.47;6135088;28;20304;-71
2023/07/06 02:39:41;;;;;;;;;;;;;;;22.62;56.36;96972.63;6152263;28;19929;-71
2023/07/06 02:42:48;;;;;;;;;;;;;;;22.71;55.98;96968.06;6152559;28;19922;-70
2023/07/06 02:45:49;;;;;;;;;;;;;;;22.80;55.95;96972.38;6151446;28;19926;-70
2023/07/06 02:48:55;;;;;;;;;;;;;;;22.90;55.65;96976.69;6152258;28;19957;-70
2023/07/06 02:52:01;;;;;;;;;;;;;;;23.06;55.45;96971.28;6152558;28;19922;-71
2023/07/06 02:55:09;;;;;;;;;;;;;;;23.18;55.32;96983.28;6135283;28;19922;-71
2023/07/06 02:58:10;;;;;;;;;;;;;;;23.23;55.00;96985.47;6150143;28;19928;-70
2023/07/06 03:01:16;;;;;;;;;;;;;;;23.28;54.74;96970.50;6152227;28;19929;-72
2023/07/06 03:04:20;;;;;;;;;;;;;;;23.37;54.64;96983.88;6151933;28;19918;-71
2023/07/06 03:07:23;;;;;;;;;;;;;;;23.48;54.37;96980.78;6151803;28;19922;-71
2023/07/06 03:10:26;;;;;;;;;;;;;;;23.60;54.28;96982.03;6152056;28;19922;-70
2023/07/06 03:13:33;;;;;;;;;;;;;;;23.70;54.07;96988.06;6135061;28;20336;-70
2023/07/06 03:16:42;;;;;;;;;;;;;;;23.80;53.52;96979.75;6134939;29;20102;-70
2023/07/06 03:19:43;;;;;;;;;;;;;;;23.95;53.24;96987.88;6151620;28;19922;-71
2023/07/06 03:22:48;;;;;;;;;;;;;;;24.12;53.22;96988.56;6151172;28;20017;-70
2023/07/06 03:25:53;;;;;;;;;;;;;;;24.21;53.10;96982.09;6149471;28;19923;-71
2023/07/06 03:28:59;;;;;;;;;;;;;;;24.31;52.68;96981.81;6151521;28;19922;-72
2023/07/06 03:32:00;;;;;;;;;;;;;;;24.36;52.18;96982.94;6150578;28;20392;-71
2023/07/06 03:35:03;;;;;;;;;;;;;;;24.54;51.97;96982.63;6134234;29;19922;-70
2023/07/06 03:38:05;;;;;;;;;;;;;;;24.56;52.10;96975.19;6151181;28;20017;-71
2023/07/06 03:41:06;;;;;;;;;;;;;;;24.68;51.95;96974.72;6133995;28;20443;-71
2023/07/06 03:44:09;;;;;;;;;;;;;;;24.76;51.51;96980.03;6150985;28;19926;-71
2023/07/06 03:47:11;;;;;;;;;;;;;;;24.78;51.67;96980.69;6150717;28;19922;-71
2023/07/06 03:50:16;;;;;;;;;;;;;;;24.83;51.42;96978.28;6133724;28;19957;-71
2023/07/06 03:53:19;;;;;;;;;;;;;;;24.83;51.34;96975.59;6134141;29;19922;-71
2023/07/06 03:56:27;;;;;;;;;;;;;;;24.97;51.02;96977.41;6117272;29;20020;-71
2023/07/06 03:59:31;;;;;;;;;;;;;;;25.13;50.23;96980.91;6150758;28;20351;-71
2023/07/06 04:02:32;;;;;;;;;;;;;;;25.22;50.06;96980.66;6150804;28;19923;-71
2023/07/06 04:05:36;;;;;;;;;;;;;;;25.32;50.06;96977.66;6150454;28;19929;-71
2023/07/06 04:08:37;;;;;;;;;;;;;;;25.55;49.69;96980.19;6150391;28;19929;-72
2023/07/06 04:11:42;;;;;;;;;;;;;;;25.76;48.94;96976.69;6150063;28;19929;-70
2023/07/06 04:14:47;;;;;;;;;;;;;;;25.89;48.68;96968.72;6150408;28;19922;-70
2023/07/06 04:17:52;;;;;;;;;;;;;;;26.07;48.36;96970.13;6149818;28;19926;-71
2023/07/06 04:20:58;;;;;;;;;;;;;;;26.31;47.82;96972.41;6150361;28;19978;-71
2023/07/06 04:24:04;;;;;;;;;;;;;;;26.39;47.42;96977.66;6150296;28;19922;-71
2023/07/06 04:27:05;;;;;;;;;;;;;;;26.54;46.76;96972.16;6132865;28;19930;-72
2023/07/06 04:30:10;;;;;;;;;;;;;;;26.73;46.50;96973.34;6150250;28;19928;-72
2023/07/06 04:33:16;;;;;;;;;;;;;;;26.81;45.94;96977.75;6150231;28;19922;-71
2023/07/06 04:36:17;;;;;;;;;;;;;;;26.93;45.69;96970.72;6149750;28;19958;-72
2023/07/06 04:39:20;;;;;;;;;;;;;;;27.09;45.46;96980.34;6148805;28;20133;-71
2023/07/06 04:42:27;;;;;;;;;;;;;;;27.28;45.22;96974.22;6149841;28;20305;-71
2023/07/06 04:45:28;;;;;;;;;;;;;;;27.59;44.42;96980.13;6150005;28;20390;-72
2023/07/06 04:48:36;;;;;;;;;;;;;;;28.27;43.69;96974.63;6149140;28;19923;-71
2023/07/06 04:51:42;;;;;;;;;;;;;;;30.38;39.16;96982.94;6149603;28;19922;-72
2023/07/06 04:54:45;;;;;;;;;;;;;;;32.69;35.71;96992.06;6149490;28;19918;-71
2023/07/06 04:57:54;;;;;;;;;;;;;;;34.89;32.85;96999.00;6149558;28;19922;-72
2023/07/06 05:00:56;;;;;;;;;;;;;;;37.17;30.81;96996.13;6149360;28;20380;-70
2023/07/06 05:04:02;;;;;;;;;;;;;;;39.32;28.69;96996.34;6149189;28;20088;-71
2023/07/06 05:07:03;;;;;;;;;;;;;;;41.68;26.98;96990.56;6131454;28;19929;-71
2023/07/06 05:10:08;;;;;;;;;;;;;;;43.47;23.72;96990.31;6149166;28;19922;-72
2023/07/06 05:13:21;;;;;;;;;;;;;;;44.74;22.18;97004.34;6149265;28;19922;-72
2023/07/06 05:16:26;;;;;;;;;;;;;;;46.09;20.90;97003.84;6149037;28;19922;-71
2023/07/06 05:19:33;;;;;;;;;;;;;;;47.61;19.65;96993.34;6148635;28;19922;-71
2023/07/06 05:22:39;;;;;;;;;;;;;;;48.86;19.83;97006.41;6149082;28;19922;-71
2023/07/06 05:25:44;;;;;;;;;;;;;;;49.58;18.04;97003.31;6148315;28;19933;-70
2023/07/06 05:28:50;;;;;;;;;;;;;;;50.28;16.95;96995.50;6148936;28;19923;-72
2023/07/06 05:31:54;;;;;;;;;;;;;;;51.55;16.95;96989.22;6132369;28;19930;-72
2023/07/06 05:34:56;;;;;;;;;;;;;;;52.48;15.71;96989.28;6148023;28;20356;-71
2023/07/06 05:38:00;;;;;;;;;;;;;;;53.86;14.80;96988.47;6148106;28;20008;-71
2023/07/06 05:41:09;;;;;;;;;;;;;;;54.39;13.95;96984.78;6149014;28;20292;-72
2023/07/06 05:44:16;;;;;;;;;;;;;;;54.66;14.44;96979.84;6149002;28;19922;-71
2023/07/06 05:47:20;;;;;;;;;;;;;;;54.91;14.61;96985.72;6148262;28;19937;-72
2023/07/06 05:50:26;;;;;;;;;;;;;;;55.64;12.45;96971.06;6147895;28;19922;-71
2023/07/06 05:53:31;;;;;;;;;;;;;;;56.35;13.78;96971.44;6148811;28;20304;-71
2023/07/06 05:56:36;;;;;;;;;;;;;;;56.97;13.90;96973.19;6159620;28;20503;-71
2023/07/06 05:59:41;;;;;;;;;;;;;;;57.45;12.55;96981.28;6178360;28;19933;-71
2023/07/06 06:02:48;;;;;;;;;;;;;;;57.39;11.36;96970.75;6179512;28;19922;-72
2023/07/06 06:05:56;;;;;;;;;;;;;;;57.43;11.76;96974.41;6178631;28;19922;-71
2023/07/06 06:09:05;;;;;;;;;;;;;;;58.08;9.32;96978.75;6178731;28;19926;-71
2023/07/06 06:12:17;;;;;;;;;;;;;;;58.32;11.44;96970.53;6177475;28;20001;-71
2023/07/06 06:15:21;;;;;;;;;;;;;;;59.25;10.73;96976.41;6177632;28;19918;-72
2023/07/06 06:18:25;;;;;;;;;;;;;;;59.54;9.72;96971.31;6178992;28;19932;-71
2023/07/06 06:21:30;;;;;;;;;;;;;;;58.56;9.01;96969.63;6176533;28;19922;-72
2023/07/06 06:24:35;;;;;;;;;;;;;;;57.83;10.24;96956.16;6178955;28;19937;-71
2023/07/06 06:27:43;;;;;;;;;;;;;;;57.90;9.66;96956.16;6179305;28;19969;-70
2023/07/06 06:30:44;;;;;;;;;;;;;;;57.55;8.94;96957.03;6174859;28;19923;-71
2023/07/06 06:33:50;;;;;;;;;;;;;;;57.09;9.80;96940.88;6151569;28;19970;-71
2023/07/06 06:36:58;;;;;;;;;;;;;;;57.79;9.14;96950.53;6153342;28;19929;-72
2023/07/06 06:40:04;;;;;;;;;;;;;;;58.32;9.22;96947.88;6174704;28;19903;-71
2023/07/06 06:43:11;;;;;;;;;;;;;;;58.75;8.46;96953.31;6179553;28;19907;-71
2023/07/06 06:46:18;;;;;;;;;;;;;;;58.00;8.78;96945.97;6177752;28;19969;-72
2023/07/06 06:49:22;;;;;;;;;;;;;;;57.94;9.30;96950.47;6167023;28;19922;-71
2023/07/06 06:52:26;;;;;;;;;;;;;;;58.81;8.00;96949.63;6161586;28;19997;-71
2023/07/06 06:55:42;;;;;;;;;;;;;;;59.81;8.38;96947.91;6176990;28;19922;-72
2023/07/06 06:58:52;;;;;;;;;;;;;;;60.64;7.88;96959.03;6180125;28;19973;-72
2023/07/06 07:02:00;;;;;;;;;;;;;;;60.49;7.87;96949.94;6184356;28;19906;-71
2023/07/06 07:05:03;;;;;;;;;;;;;;;60.17;7.95;96953.22;6166747;28;19961;-71
2023/07/06 07:08:04;;;;;;;;;;;;;;;60.17;7.85;96941.84;6167295;28;19922;-72
2023/07/06 07:11:10;;;;;;;;;;;;;;;60.28;7.97;96947.34;6182779;28;20552;-72
2023/07/06 07:14:15;;;;;;;;;;;;;;;60.88;7.69;96937.16;6184208;28;19923;-71
2023/07/06 07:17:16;;;;;;;;;;;;;;;61.42;7.62;96939.09;6184733;28;19926;-71
2023/07/06 07:20:20;;;;;;;;;;;;;;;61.00;6.77;96921.50;6183949;28;19926;-71
2023/07/06 07:23:33;;;;;;;;;;;;;;;59.51;7.24;96915.41;6164246;28;19962;-71
2023/07/06 07:26:39;;;;;;;;;;;;;;;59.42;7.43;96906.56;6181044;28;19922;-72
2023/07/06 07:29:47;;;;;;;;;;;;;;;60.28;7.32;96918.94;6180451;28;19958;-71
2023/07/06 07:32:50;;;;;;;;;;;;;;;60.64;7.41;96922.06;6166104;28;19958;-71
2023/07/06 07:35:53;;;;;;;;;;;;;;;61.34;7.19;96926.25;6182976;28;19926;-72
2023/07/06 07:46:49;;;;;;;;;;;;;;;60.88;7.21;96919.31;7039693;23;19937;-72
2023/07/06 07:49:54;;;;;;;;;;;;;;;60.01;6.68;96902.66;6135273;29;20441;-72
2023/07/06 07:53:02;;;;;;;;;;;;;;;59.57;7.29;96900.75;6132759;29;19923;-72
2023/07/06 07:56:08;;;;;;;;;;;;;;;59.36;7.47;96891.22;6133953;29;19927;-71
2023/07/06 07:59:15;;;;;;;;;;;;;;;58.46;7.16;96882.63;6123952;29;19931;-71
2023/07/06 08:02:17;;;;;;;;;;;;;;;58.50;7.32;96876.97;6103628;29;19923;-72
2023/07/06 08:05:23;;;;;;;;;;;;;;;59.16;7.50;96876.00;6105189;29;19927;-72
2023/07/06 08:08:32;;;;;;;;;;;;;;;60.48;6.85;96890.66;6128895;29;19947;-71
2023/07/06 08:11:45;;;;;;;;;;;;;;;61.68;6.33;96909.72;6130831;29;19927;-71
2023/07/06 08:14:48;;;;;;;;;;;;;;;61.22;5.73;96902.84;6132055;29;19923;-71
2023/07/06 08:18:00;;;;;;;;;;;;;;;59.47;7.41;96897.59;6128711;29;19923;-71
2023/07/06 08:21:01;;;;;;;;;;;;;;;59.47;7.16;96886.22;6113714;29;19927;-72
2023/07/06 08:24:07;;;;;;;;;;;;;;;60.44;6.17;96887.06;6131883;29;20376;-71
2023/07/06 08:27:19;;;;;;;;;;;;;;;61.83;6.65;96898.03;6131766;29;19923;-71
2023/07/06 08:30:32;;;;;;;;;;;;;;;62.58;6.02;96905.75;6133081;29;19930;-71
2023/07/06 08:33:37;;;;;;;;;;;;;;;60.84;5.83;96896.59;6130509;29;20018;-72
2023/07/06 08:36:41;;;;;;;;;;;;;;;59.61;6.71;96898.69;6105118;29;19981;-72
2023/07/06 08:39:45;;;;;;;;;;;;;;;57.79;7.40;96898.75;6102486;29;20401;-72
2023/07/06 08:42:55;;;;;;;;;;;;;;;54.72;8.71;96857.91;6102347;29;20153;-72
2023/07/06 08:46:03;;;;;;;;;;;;;;;52.11;10.22;96845.75;6102156;29;19929;-71
2023/07/06 08:49:31;;;;;;;;;;;;;;;49.69;11.70;96847.84;6101909;29;19946;-72
2023/07/06 08:52:35;;;;;;;;;;;;;;;47.11;13.03;96844.47;6101293;29;20398;-72
2023/07/06 08:55:39;;;;;;;;;;;;;;;45.81;13.65;96842.88;6102452;29;19926;-72
2023/07/06 08:58:46;;;;;;;;;;;;;;;44.65;14.52;96839.72;6102239;29;19923;-72
2023/07/06 09:01:52;;;;;;;;;;;;;;;43.35;15.88;96834.09;6102174;29;19923;-73
2023/07/06 09:04:59;;;;;;;;;;;;;;;42.51;15.83;96829.72;6102124;29;19930;-72
2023/07/06 09:08:00;;;;;;;;;;;;;;;41.70;16.68;96827.25;6101913;29;19927;-71
2023/07/06 09:11:05;;;;;;;;;;;;;;;40.96;18.24;96830.47;6101779;29;20397;-73
2023/07/06 09:14:10;;;;;;;;;;;;;;;39.45;19.18;96829.75;6101781;29;19923;-72
2023/07/06 09:17:16;;;;;;;;;;;;;;;38.79;19.52;96817.97;6101778;29;19923;-72
2023/07/06 09:20:18;;;;;;;;;;;;;;;38.44;20.38;96816.16;6101890;29;19923;-71
2023/07/06 09:23:24;;;;;;;;;;;;;;;37.49;21.39;96806.63;6101636;29;19990;-72
2023/07/06 09:26:33;;;;;;;;;;;;;;;36.76;21.75;96803.13;6101556;29;20393;-71
2023/07/06 09:29:41;;;;;;;;;;;;;;;36.05;22.67;96803.56;6101071;29;19923;-72
2023/07/06 09:32:51;;;;;;;;;;;;;;;35.42;23.22;96806.03;6101167;29;20546;-73
2023/07/06 09:35:56;;;;;;;;;;;;;;;35.07;24.03;96810.06;6101429;29;19923;-71
2023/07/06 09:39:03;;;;;;;;;;;;;;;34.68;24.08;96817.50;6084675;29;19923;-71
2023/07/06 09:42:14;;;;;;;;;;;;;;;34.60;24.58;96816.06;6084351;29;19954;-71
2023/07/06 09:45:29;;;;;;;;;;;;;;;34.42;24.82;96819.88;6101192;29;19923;-72
2023/07/06 09:48:32;;;;;;;;;;;;;;;34.26;25.13;96816.13;6101077;29;19923;-71
2023/07/06 09:51:40;;;;;;;;;;;;;;;34.26;25.36;96821.59;6100948;29;19927;-71
2023/07/06 09:54:55;;;;;;;;;;;;;;;34.10;25.79;96808.78;6100862;29;20341;-71
2023/07/06 09:57:59;;;;;;;;;;;;;;;34.07;26.11;96809.28;6100833;29;20422;-70
2023/07/06 10:01:05;;;;;;;;;;;;;;;33.92;25.89;96807.97;6101081;29;19930;-71
2023/07/06 10:04:34;;;;;;;;;;;;;;;34.07;26.40;96795.66;6100019;29;20341;-71
2023/07/06 10:07:47;;;;;;;;;;;;;;;34.24;26.34;96796.44;6100033;29;19934;-72
2023/07/06 10:11:09;;;;;;;;;;;;;;;34.78;25.60;96807.50;6101000;29;19922;-71
2023/07/06 10:14:20;;;;;;;;;;;;;;;35.62;24.78;96808.97;6078435;29;20309;-71
2023/07/06 10:17:24;;;;;;;;;;;;;;;36.40;23.43;96809.22;6100800;29;20297;-71
2023/07/06 10:20:35;;;;;;;;;;;;;;;37.05;23.32;96818.03;6101263;29;19923;-72
2023/07/06 10:23:57;;;;;;;;;;;;;;;38.27;21.90;96815.63;6100717;29;20299;-71
2023/07/06 10:27:01;;;;;;;;;;;;;;;39.60;20.71;96815.84;6099501;29;19986;-70
2023/07/06 10:30:19;;;;;;;;;;;;;;;40.77;19.59;96821.38;6100632;29;19922;-71
2023/07/06 10:33:44;;;;;;;;;;;;;;;41.50;18.93;96832.00;6100891;29;19923;-71
2023/07/06 10:36:48;;;;;;;;;;;;;;;41.95;18.50;96839.84;6097723;29;19923;-70
2023/07/06 10:39:52;;;;;;;;;;;;;;;42.13;18.07;96840.94;6088513;29;20607;-71
2023/07/06 10:43:14;;;;;;;;;;;;;;;41.80;18.58;96823.50;6105264;29;19923;-70
2023/07/06 10:46:36;;;;;;;;;;;;;;;41.61;18.73;96818.81;6105092;29;19923;-71
2023/07/06 10:49:56;;;;;;;;;;;;;;;41.17;18.20;96805.41;6057147;29;19945;-71
2023/07/06 10:52:59;;;;;;;;;;;;;;;40.48;18.62;96802.91;6058284;29;19931;-70
2023/07/06 10:56:06;;;;;;;;;;;;;;;39.68;18.76;96797.91;6058246;29;20318;-71
2023/07/06 10:59:14;;;;;;;;;;;;;;;39.17;19.15;96795.50;6058339;29;20394;-70
2023/07/06 11:02:20;;;;;;;;;;;;;;;38.93;19.64;96801.69;6057245;29;19924;-71
2023/07/06 11:05:28;;;;;;;;;;;;;;;38.52;20.24;96801.84;6057734;29;19923;-72
2023/07/06 11:08:51;;;;;;;;;;;;;;;38.03;21.47;96799.75;6057049;29;19927;-71
2023/07/06 11:11:55;;;;;;;;;;;;;;;37.24;23.56;96792.84;6057781;29;19924;-70
2023/07/06 11:15:10;;;;;;;;;;;;;;;37.05;22.58;96787.84;6057798;29;19923;-72
2023/07/06 11:18:24;;;;;;;;;;;;;;;37.22;22.69;96784.06;6057397;29;19935;-70
2023/07/06 11:21:38;;;;;;;;;;;;;;;37.78;22.83;96781.34;6058074;29;19923;-70
2023/07/06 11:24:48;;;;;;;;;;;;;;;37.96;23.19;96788.22;6057834;29;19924;-71
2023/07/06 11:27:55;;;;;;;;;;;;;;;38.39;22.28;96778.50;6057802;29;19932;-71
2023/07/06 11:31:24;;;;;;;;;;;;;;;39.21;21.22;96780.03;6057376;29;19976;-72
2023/07/06 11:34:35;;;;;;;;;;;;;;;39.73;20.90;96771.13;6056157;29;19949;-71
2023/07/06 11:37:56;;;;;;;;;;;;;;;40.12;20.79;96772.16;6056327;29;19924;-72
2023/07/06 11:41:21;;;;;;;;;;;;;;;40.49;20.30;96768.72;6056889;29;19923;-72
2023/07/06 11:44:39;;;;;;;;;;;;;;;40.66;20.06;96770.22;6057370;29;20126;-72
2023/07/06 11:47:43;;;;;;;;;;;;;;;40.51;20.40;96766.50;6074162;29;19923;-71
2023/07/06 11:50:48;;;;;;;;;;;;;;;40.14;20.89;96765.25;6103059;29;20249;-70
2023/07/06 11:53:57;;;;;;;;;;;;;;;39.51;21.35;96773.53;6103509;29;19922;-71
2023/07/06 11:57:24;;;;;;;;;;;;;;;39.28;21.33;96762.09;6086993;29;19919;-72
2023/07/06 12:03:34;;;;;;;;;;;;;;;39.00;21.83;96777.44;6103398;29;19919;-72
2023/07/06 12:06:36;;;;;;;;;;;;;;;38.59;21.86;96779.56;6103179;29;19943;-72
2023/07/06 12:09:39;;;;;;;;;;;;;;;38.45;22.38;96778.53;6101734;29;20301;-71
2023/07/06 12:12:44;;;;;;;;;;;;;;;38.31;22.51;96779.06;6103395;29;19923;-70
2023/07/06 12:16:08;;;;;;;;;;;;;;;38.09;22.43;96786.84;6087788;29;19919;-71
2023/07/06 12:19:11;;;;;;;;;;;;;;;37.55;23.27;96781.91;6102388;29;19923;-70
2023/07/06 12:22:18;;;;;;;;;;;;;;;36.55;24.06;96781.13;6102860;29;19918;-71
2023/07/06 12:25:23;;;;;;;;;;;;;;;36.00;24.83;96784.31;6101853;29;20321;-70
2023/07/06 12:28:30;;;;;;;;;;;;;;;35.53;25.17;96785.88;6102803;29;20018;-71
2023/07/06 12:31:34;;;;;;;;;;;;;;;35.11;25.85;96788.50;6102812;29;20025;-70
2023/07/06 12:34:40;;;;;;;;;;;;;;;34.65;26.09;96796.97;6101723;29;20024;-71
2023/07/06 12:37:44;;;;;;;;;;;;;;;34.42;26.17;96789.81;6101410;29;20341;-72
2023/07/06 12:40:48;;;;;;;;;;;;;;;34.27;26.19;96784.19;6102875;29;19930;-72
2023/07/06 12:43:53;;;;;;;;;;;;;;;33.98;25.99;96787.03;6101853;29;19923;-71
2023/07/06 12:47:01;;;;;;;;;;;;;;;33.91;26.21;96792.63;6101599;29;20001;-71
2023/07/06 12:50:09;;;;;;;;;;;;;;;33.85;26.48;96796.38;6102255;29;20091;-73
2023/07/06 12:53:22;;;;;;;;;;;;;;;33.76;26.38;96795.97;6102037;29;20348;-71
2023/07/06 12:56:31;;;;;;;;;;;;;;;33.71;26.66;96786.88;6102159;29;19923;-70
2023/07/06 12:59:36;;;;;;;;;;;;;;;33.67;27.37;96785.75;6101936;29;19923;-71
2023/07/06 13:02:42;;;;;;;;;;;;;;;33.58;27.81;96781.78;6101820;29;20385;-72
2023/07/06 13:05:56;;;;;;;;;;;;;;;33.47;27.78;96773.38;6101340;29;19923;-71
2023/07/06 13:09:00;;;;;;;;;;;;;;;33.32;28.59;96767.69;6101125;29;20073;-72
2023/07/06 13:12:09;;;;;;;;;;;;;;;33.16;29.14;96763.88;6101950;29;20017;-72
2023/07/06 13:15:18;;;;;;;;;;;;;;;32.86;29.22;96770.38;6101050;29;19927;-71
2023/07/06 13:18:21;;;;;;;;;;;;;;;32.60;29.63;96777.22;6101551;29;19922;-72
2023/07/06 13:21:26;;;;;;;;;;;;;;;32.32;30.77;96786.16;6084767;29;20323;-73
2023/07/06 13:24:31;;;;;;;;;;;;;;;32.01;31.52;96786.56;6100652;29;19939;-72
2023/07/06 13:27:32;;;;;;;;;;;;;;;31.74;33.04;96797.91;6100241;29;20356;-72
2023/07/06 13:30:40;;;;;;;;;;;;;;;31.49;33.89;96803.53;6101407;29;20309;-73
2023/07/06 13:33:46;;;;;;;;;;;;;;;31.25;34.15;96799.91;6100853;29;19922;-72
2023/07/06 13:36:50;;;;;;;;;;;;;;;31.03;33.68;96810.50;6100644;29;19975;-71
2023/07/06 13:39:59;;;;;;;;;;;;;;;30.94;34.11;96809.13;6101178;29;19923;-72
2023/07/06 13:43:04;;;;;;;;;;;;;;;30.90;33.92;96821.53;6100491;29;19954;-72
2023/07/06 13:46:11;;;;;;;;;;;;;;;30.84;34.18;96815.94;6100843;29;19930;-71
2023/07/06 13:49:14;;;;;;;;;;;;;;;30.76;33.85;96827.09;6075549;29;19923;-72
2023/07/06 13:52:17;;;;;;;;;;;;;;;30.70;34.17;96828.03;6077383;29;20059;-72
2023/07/06 13:55:29;;;;;;;;;;;;;;;30.64;33.79;96839.81;6077411;29;19927;-72
2023/07/06 13:58:35;;;;;;;;;;;;;;;30.60;34.23;96839.44;6077369;29;19924;-70
2023/07/06 14:01:43;;;;;;;;;;;;;;;30.57;33.90;96839.03;6075474;29;19923;-71
2023/07/06 14:04:45;;;;;;;;;;;;;;;30.52;34.44;96831.59;6077191;29;19986;-72
2023/07/06 14:07:48;;;;;;;;;;;;;;;30.51;34.70;96834.50;6077399;29;19923;-72
2023/07/06 14:10:55;;;;;;;;;;;;;;;30.50;34.27;96832.88;6076430;29;19923;-71
2023/07/06 14:14:01;;;;;;;;;;;;;;;30.46;35.11;96828.94;6076174;29;19923;-72
2023/07/06 14:17:03;;;;;;;;;;;;;;;30.31;35.32;96824.72;6076994;29;19923;-72
2023/07/06 14:20:04;;;;;;;;;;;;;;;30.15;35.57;96825.28;6076589;29;19923;-71
2023/07/06 14:23:10;;;;;;;;;;;;;;;30.01;35.73;96812.88;6077242;29;19923;-72
2023/07/06 14:26:14;;;;;;;;;;;;;;;29.93;37.77;96814.84;6077209;29;19923;-73
2023/07/06 14:29:17;;;;;;;;;;;;;;;29.81;36.19;96805.81;6076578;29;20550;-72
2023/07/06 14:32:23;;;;;;;;;;;;;;;29.76;37.32;96800.22;6076890;29;19927;-73
2023/07/06 14:35:27;;;;;;;;;;;;;;;29.67;37.42;96807.81;6077164;29;19923;-72
2023/07/06 14:38:32;;;;;;;;;;;;;;;29.54;38.14;96797.84;6076984;29;20030;-73
2023/07/06 14:41:36;;;;;;;;;;;;;;;29.42;38.12;96799.63;6077061;29;19924;-72
2023/07/06 14:44:40;;;;;;;;;;;;;;;29.37;39.07;96785.09;6075232;29;20067;-72
2023/07/06 14:47:42;;;;;;;;;;;;;;;29.37;38.30;96785.91;6085048;29;19934;-72
2023/07/06 14:50:45;;;;;;;;;;;;;;;29.46;38.35;96791.88;6100189;29;20018;-71
2023/07/06 14:53:46;;;;;;;;;;;;;;;29.50;38.19;96791.22;6082219;29;19923;-71
2023/07/06 14:56:52;;;;;;;;;;;;;;;29.61;37.64;96781.56;6099761;29;20317;-72
2023/07/06 14:59:59;;;;;;;;;;;;;;;29.65;37.50;96780.06;6100137;29;19927;-71
2023/07/06 15:03:03;;;;;;;;;;;;;;;29.59;37.99;96777.41;6100410;29;20385;-72
2023/07/06 15:06:13;;;;;;;;;;;;;;;29.53;37.70;96790.78;6100272;29;19919;-72
2023/07/06 15:09:18;;;;;;;;;;;;;;;29.52;37.62;96797.25;6099478;29;19929;-72
2023/07/06 15:12:21;;;;;;;;;;;;;;;29.43;38.04;96797.75;6100198;29;19927;-71
2023/07/06 15:15:27;;;;;;;;;;;;;;;29.36;38.09;96800.53;6100392;29;20347;-72
2023/07/06 15:18:32;;;;;;;;;;;;;;;29.28;37.84;96806.19;6100115;29;19923;-72
2023/07/06 15:21:36;;;;;;;;;;;;;;;29.17;38.29;96798.78;6102121;29;19923;-70
2023/07/06 15:24:37;;;;;;;;;;;;;;;29.08;38.17;96804.47;6103008;29;19930;-71
2023/07/06 15:27:38;;;;;;;;;;;;;;;28.94;38.54;96808.25;6103235;29;19923;-72
2023/07/06 15:30:41;;;;;;;;;;;;;;;28.81;39.07;96808.31;6103812;29;20465;-71
2023/07/06 15:33:45;;;;;;;;;;;;;;;28.70;39.39;96804.41;6104332;29;20317;-71
2023/07/06 15:36:47;;;;;;;;;;;;;;;28.52;39.48;96807.84;6103833;29;19923;-71
2023/07/06 15:39:50;;;;;;;;;;;;;;;28.36;40.48;96801.00;6103927;29;20184;-70
2023/07/06 15:42:53;;;;;;;;;;;;;;;28.22;40.29;96793.97;6103288;29;20063;-71
2023/07/06 15:45:58;;;;;;;;;;;;;;;28.02;40.54;96794.03;6103725;29;19918;-71
2023/07/06 15:49:05;;;;;;;;;;;;;;;27.85;40.85;96790.09;6103164;29;19923;-72
2023/07/06 15:52:06;;;;;;;;;;;;;;;27.68;40.42;96790.50;6103167;29;20313;-72
2023/07/06 15:55:14;;;;;;;;;;;;;;;27.52;40.94;96791.78;6103396;29;19923;-72
2023/07/06 15:58:20;;;;;;;;;;;;;;;27.37;40.61;96790.31;6103314;29;20359;-71
2023/07/06 16:01:23;;;;;;;;;;;;;;;27.24;41.66;96797.38;6103181;29;19927;-72
2023/07/06 16:04:29;;;;;;;;;;;;;;;27.12;41.72;96793.59;6103222;29;19923;-71
2023/07/06 16:07:34;;;;;;;;;;;;;;;26.97;42.10;96792.94;6103572;29;19919;-71
2023/07/06 16:10:39;;;;;;;;;;;;;;;26.84;41.86;96786.50;6103217;29;19923;-71
2023/07/06 16:13:40;;;;;;;;;;;;;;;26.72;42.63;96788.09;6102474;29;19938;-71
2023/07/06 16:16:45;;;;;;;;;;;;;;;26.59;42.28;96778.09;6103038;29;19919;-72
2023/07/06 16:19:47;;;;;;;;;;;;;;;26.54;42.70;96779.75;6102925;29;20021;-71
2023/07/06 16:22:51;;;;;;;;;;;;;;;26.41;43.07;96780.50;6085789;29;19967;-72